createdAt,value
2022-11-22T00:00:25.721Z,26.23
2022-11-22T00:03:16.007Z,25.87
2022-11-22T00:05:45.974Z,26.17
2022-11-22T00:08:18.948Z,21.90
2022-11-22T00:10:51.411Z,24.50
2022-11-22T00:13:22.436Z,25.03
2022-11-22T00:16:01.703Z,27.33
2022-11-22T00:18:32.027Z,22.27
2022-11-22T00:21:08.541Z,24.70
2022-11-22T00:23:52.687Z,25.20
2022-11-22T00:26:45.489Z,24.17
2022-11-22T00:29:16.513Z,26.47
2022-11-22T00:31:46.451Z,26.27
2022-11-22T00:34:16.793Z,22.20
2022-11-22T00:36:46.973Z,26.77
2022-11-22T00:39:19.862Z,26.10
2022-11-22T00:41:49.833Z,24.43
2022-11-22T00:44:20.133Z,21.80
2022-11-22T00:46:50.211Z,23.50
2022-11-22T00:49:20.933Z,26.30
2022-11-22T00:51:52.064Z,27.20
2022-11-22T00:54:26.230Z,24.43
2022-11-22T00:56:56.243Z,27.70
2022-11-22T00:59:27.708Z,26.57
2022-11-22T01:01:59.361Z,28.00
2022-11-22T01:04:31.056Z,27.43
2022-11-22T01:07:02.307Z,25.97
2022-11-22T01:09:39.744Z,25.67
2022-11-22T01:12:12.673Z,25.67
2022-11-22T01:14:45.929Z,28.17
2022-11-22T01:17:18.629Z,25.73
2022-11-22T01:19:49.560Z,28.57
2022-11-22T01:22:20.205Z,27.30
2022-11-22T01:24:53.555Z,26.37
2022-11-22T01:27:24.589Z,24.50
2022-11-22T01:29:55.829Z,28.27
2022-11-22T01:32:30.422Z,29.27
2022-11-22T01:35:04.226Z,25.87
2022-11-22T01:37:36.142Z,26.27
2022-11-22T01:40:12.521Z,26.97
2022-11-22T01:42:52.690Z,27.50
2022-11-22T01:45:43.715Z,28.73
2022-11-22T01:48:25.868Z,26.23
2022-11-22T01:51:08.315Z,30.63
2022-11-22T01:53:44.139Z,31.37
2022-11-22T01:56:23.010Z,28.30
2022-11-22T01:59:03.130Z,29.50
2022-11-22T02:01:42.296Z,32.97
2022-11-22T02:04:18.453Z,26.40
2022-11-22T02:06:56.757Z,27.93
2022-11-22T02:09:27.839Z,29.73
2022-11-22T02:12:05.390Z,29.87
2022-11-22T02:14:37.202Z,25.83
2022-11-22T02:17:09.129Z,29.13
2022-11-22T02:19:45.707Z,31.53
2022-11-22T02:22:28.310Z,30.80
2022-11-22T02:25:02.553Z,31.50
2022-11-22T02:27:36.482Z,28.63
2022-11-22T02:30:08.278Z,29.07
2022-11-22T02:32:38.629Z,29.43
2022-11-22T02:35:20.706Z,34.20
2022-11-22T02:37:54.194Z,33.47
2022-11-22T02:40:25.401Z,36.67
2022-11-22T02:43:02.948Z,32.77
2022-11-22T02:45:32.904Z,31.00
2022-11-22T02:48:08.814Z,31.87
2022-11-22T02:50:39.145Z,31.33
2022-11-22T02:53:10.552Z,33.60
2022-11-22T02:55:41.345Z,34.70
2022-11-22T02:58:14.432Z,33.97
2022-11-22T03:00:44.578Z,36.00
2022-11-22T03:03:14.889Z,31.60
2022-11-22T03:05:45.021Z,31.70
2022-11-22T03:08:15.411Z,31.87
2022-11-22T03:10:45.388Z,33.53
2022-11-22T03:13:18.231Z,31.43
2022-11-22T03:15:49.826Z,30.70
2022-11-22T03:18:20.197Z,28.77
2022-11-22T03:20:50.157Z,31.13
2022-11-22T03:23:20.570Z,31.30
2022-11-22T03:25:50.519Z,33.23
2022-11-22T03:28:23.424Z,35.97
2022-11-22T03:30:53.443Z,29.60
2022-11-22T03:33:23.754Z,30.80
2022-11-22T03:35:53.701Z,35.57
2022-11-22T03:38:23.965Z,34.07
2022-11-22T03:40:54.201Z,32.60
2022-11-22T03:43:27.285Z,34.43
2022-11-22T03:45:57.287Z,33.47
2022-11-22T03:48:27.554Z,33.97
2022-11-22T03:50:57.532Z,33.77
2022-11-22T03:53:27.858Z,36.63
2022-11-22T03:55:57.821Z,35.17
2022-11-22T03:58:30.761Z,33.33
2022-11-22T04:01:01.462Z,39.70
2022-11-22T04:03:31.962Z,38.67
2022-11-22T04:06:01.917Z,38.33
2022-11-22T04:08:32.225Z,39.70
2022-11-22T04:11:02.555Z,40.37
2022-11-22T04:13:47.942Z,42.20
2022-11-22T04:16:18.294Z,38.73
2022-11-22T04:18:48.877Z,42.50
2022-11-22T04:21:31.505Z,43.30
2022-11-22T04:24:14.582Z,41.87
2022-11-22T04:26:44.879Z,46.30
2022-11-22T04:29:18.240Z,39.07
2022-11-22T04:32:01.293Z,42.43
2022-11-22T04:34:31.656Z,39.57
2022-11-22T04:37:02.483Z,43.87
2022-11-22T04:39:33.313Z,48.30
2022-11-22T04:42:15.914Z,46.27
2022-11-22T04:44:48.873Z,48.13
2022-11-22T04:47:32.556Z,45.70
2022-11-22T04:50:02.910Z,45.90
2022-11-22T04:52:45.371Z,48.70
2022-11-22T04:55:15.991Z,35.23
2022-11-22T04:57:45.863Z,49.53
2022-11-22T05:00:20.197Z,49.63
2022-11-22T05:02:50.181Z,48.83
2022-11-22T05:05:20.505Z,55.37
2022-11-22T05:07:50.527Z,52.57
2022-11-22T05:10:26.046Z,52.70
2022-11-22T05:12:57.234Z,50.10
2022-11-22T05:15:30.300Z,51.83
2022-11-22T05:18:00.179Z,53.97
2022-11-22T05:20:30.496Z,53.90
2022-11-22T05:23:12.958Z,56.47
2022-11-22T05:25:44.268Z,55.47
2022-11-22T05:28:14.217Z,52.30
2022-11-22T05:30:47.123Z,50.80
2022-11-22T05:33:17.085Z,60.40
2022-11-22T05:35:47.402Z,54.43
2022-11-22T05:38:17.541Z,49.37
2022-11-22T05:40:47.893Z,57.57
2022-11-22T05:45:54.443Z,53.67
2022-11-22T05:48:24.679Z,49.10
2022-11-22T05:50:55.016Z,47.93
2022-11-22T05:53:24.906Z,54.27
2022-11-22T05:55:55.233Z,52.63
2022-11-22T05:58:25.213Z,56.17
2022-11-22T06:00:58.083Z,58.50
2022-11-22T06:03:28.084Z,51.53
2022-11-22T06:05:58.474Z,50.40
2022-11-22T06:08:28.663Z,38.63
2022-11-22T06:11:02.544Z,51.40
2022-11-22T06:13:35.322Z,52.13
2022-11-22T06:16:09.864Z,44.23
2022-11-22T06:18:40.152Z,47.73
2022-11-22T06:21:13.311Z,51.17
2022-11-22T06:23:43.390Z,48.30
2022-11-22T06:26:15.656Z,40.93
2022-11-22T06:28:47.215Z,52.80
2022-11-22T06:31:22.697Z,50.53
2022-11-22T06:33:53.982Z,49.20
2022-11-22T06:36:27.557Z,50.27
2022-11-22T06:38:58.688Z,48.43
2022-11-22T06:41:30.768Z,55.10
2022-11-22T06:44:03.542Z,54.60
2022-11-22T06:46:39.061Z,47.30
2022-11-22T06:49:09.901Z,52.83
2022-11-22T06:51:43.277Z,54.03
2022-11-22T06:54:20.840Z,52.80
2022-11-22T06:56:56.300Z,51.43
2022-11-22T06:59:30.217Z,47.80
2022-11-22T07:02:06.828Z,49.53
2022-11-22T07:04:50.924Z,48.70
2022-11-22T07:07:28.170Z,51.77
2022-11-22T07:09:58.526Z,54.80
2022-11-22T07:12:29.190Z,49.50
2022-11-22T07:14:59.224Z,48.57
2022-11-22T07:17:32.242Z,43.37
2022-11-22T07:20:02.187Z,48.07
2022-11-22T07:22:32.419Z,52.90
2022-11-22T07:25:02.475Z,51.87
2022-11-22T07:27:33.155Z,39.47
2022-11-22T07:30:03.124Z,52.07
2022-11-22T07:32:35.981Z,52.57
2022-11-22T07:35:06.570Z,54.03
2022-11-22T07:37:38.724Z,49.37
2022-11-22T07:40:11.346Z,48.23
2022-11-22T07:42:41.893Z,48.13
2022-11-22T07:45:13.017Z,51.57
2022-11-22T07:47:45.986Z,48.13
2022-11-22T07:50:16.320Z,47.60
2022-11-22T07:52:47.010Z,48.77
2022-11-22T07:55:17.204Z,50.83
2022-11-22T08:02:01.724Z,47.67
2022-11-22T08:18:57.488Z,46.90
2022-11-22T08:22:46.565Z,49.70
2022-11-22T08:26:32.866Z,48.47
2022-11-22T08:30:18.204Z,48.30
2022-11-22T08:49:13.740Z,54.97
2022-11-22T08:52:34.251Z,54.53
2022-11-22T08:55:19.835Z,55.83
2022-11-22T09:10:02.247Z,51.77
2022-11-22T09:13:33.022Z,55.07
2022-11-22T09:16:07.462Z,60.30
2022-11-22T09:18:38.073Z,54.03
2022-11-22T09:21:10.980Z,60.43
2022-11-22T09:23:41.174Z,51.63
2022-11-22T09:26:13.914Z,50.53
2022-11-22T09:28:47.191Z,55.07
2022-11-22T09:31:22.543Z,56.60
2022-11-22T09:33:53.920Z,58.63
2022-11-22T09:36:28.291Z,52.33
2022-11-22T09:38:59.849Z,57.67
2022-11-22T09:41:59.464Z,60.73
2022-11-22T09:44:48.314Z,55.50
2022-11-22T09:47:30.662Z,56.07
2022-11-22T09:50:11.846Z,54.47
2022-11-22T09:52:47.503Z,61.63
2022-11-22T09:55:25.763Z,53.90
2022-11-22T09:58:07.653Z,61.27
2022-11-22T10:00:52.256Z,59.20
2022-11-22T10:04:11.180Z,67.20
2022-11-22T10:07:18.991Z,57.97
2022-11-22T10:10:57.853Z,68.63
2022-11-22T10:13:41.493Z,62.63
2022-11-22T10:16:20.822Z,64.57
2022-11-22T10:18:58.046Z,61.03
2022-11-22T10:21:29.296Z,60.43
2022-11-22T10:23:59.418Z,50.47
2022-11-22T10:26:33.500Z,60.93
2022-11-22T10:29:30.303Z,60.33
2022-11-22T10:32:16.205Z,60.63
2022-11-22T10:35:10.058Z,59.07
2022-11-22T10:37:51.564Z,61.90
2022-11-22T10:40:28.929Z,64.93
2022-11-22T10:43:19.024Z,55.90
2022-11-22T10:45:54.176Z,61.10
2022-11-22T10:48:41.189Z,59.63
2022-11-22T10:51:28.075Z,54.23
2022-11-22T10:54:32.215Z,58.67
2022-11-22T10:57:26.944Z,60.27
2022-11-22T11:00:21.589Z,65.73
2022-11-22T11:03:54.641Z,60.67
2022-11-22T11:07:11.789Z,60.67
2022-11-22T11:10:23.566Z,56.40
2022-11-22T11:13:12.197Z,57.23
2022-11-22T11:15:51.292Z,54.03
2022-11-22T11:18:30.078Z,56.23
2022-11-22T11:21:03.073Z,55.00
2022-11-22T11:23:36.848Z,58.10
2022-11-22T11:26:35.268Z,58.97
2022-11-22T11:29:53.552Z,56.63
2022-11-22T11:32:24.537Z,58.07
2022-11-22T11:38:00.241Z,61.73
2022-11-22T11:40:38.203Z,51.77
2022-11-22T11:43:21.460Z,50.17
2022-11-22T11:45:52.317Z,57.77
2022-11-22T11:48:30.753Z,49.60
2022-11-22T11:51:30.675Z,51.87
2022-11-22T11:54:04.105Z,56.57
2022-11-22T11:56:46.621Z,53.97
2022-11-22T11:59:28.955Z,55.90
2022-11-22T12:02:09.679Z,48.47
2022-11-22T12:05:00.736Z,49.93
2022-11-22T12:07:44.987Z,56.93
2022-11-22T12:10:32.409Z,54.63
2022-11-22T12:13:30.361Z,54.30
2022-11-22T12:16:18.744Z,57.13
2022-11-22T12:19:18.078Z,51.17
2022-11-22T12:22:24.229Z,51.23
2022-11-22T12:25:31.563Z,55.30
2022-11-22T12:28:14.999Z,51.63
2022-11-22T12:30:48.430Z,40.47
2022-11-22T12:33:30.520Z,54.70
2022-11-22T12:36:08.076Z,55.40
2022-11-22T12:38:55.252Z,55.97
2022-11-22T12:41:31.041Z,55.30
2022-11-22T12:44:23.953Z,59.60
2022-11-22T12:47:03.563Z,57.30
2022-11-22T12:49:39.972Z,57.83
2022-11-22T12:52:21.023Z,55.80
2022-11-22T12:55:02.188Z,56.07
2022-11-22T12:57:41.402Z,58.07
2022-11-22T13:00:19.435Z,58.53
2022-11-22T13:03:01.911Z,55.27
2022-11-22T13:05:37.050Z,52.10
2022-11-22T13:08:16.685Z,60.17
2022-11-22T13:10:52.856Z,52.50
2022-11-22T13:13:28.723Z,54.27
2022-11-22T13:16:04.853Z,58.40
2022-11-22T13:18:39.189Z,56.70
2022-11-22T13:21:16.402Z,50.77
2022-11-22T13:24:02.087Z,54.20
2022-11-22T13:26:39.502Z,53.00
2022-11-22T13:29:19.684Z,55.90
2022-11-22T13:32:23.780Z,55.63
2022-11-22T13:35:08.749Z,53.13
2022-11-22T13:37:41.834Z,51.30
2022-11-22T13:40:26.041Z,54.23
2022-11-22T13:43:26.056Z,49.40
2022-11-22T13:45:58.410Z,55.90
2022-11-22T13:49:19.199Z,54.27
2022-11-22T13:52:11.859Z,51.27
2022-11-22T13:55:32.318Z,51.37
2022-11-22T13:59:14.590Z,51.23
2022-11-22T14:02:05.760Z,48.43
2022-11-22T14:04:47.406Z,49.63
2022-11-22T14:08:24.532Z,46.83
2022-11-22T14:15:20.820Z,46.50
2022-11-22T14:18:37.913Z,47.33
2022-11-22T14:21:47.947Z,49.27
2022-11-22T14:24:44.455Z,51.90
2022-11-22T14:32:04.763Z,48.53
2022-11-22T14:35:27.930Z,48.10
2022-11-22T14:38:28.315Z,59.00
2022-11-22T14:41:35.222Z,52.07
2022-11-22T14:44:15.115Z,46.87
2022-11-22T14:46:58.509Z,52.23
2022-11-22T14:49:48.805Z,50.97
2022-11-22T14:52:32.605Z,52.00
2022-11-22T14:55:09.085Z,47.70
2022-11-22T14:57:40.403Z,54.33
2022-11-22T15:00:20.800Z,51.13
2022-11-22T15:03:24.925Z,52.63
2022-11-22T15:09:16.474Z,51.47
2022-11-22T15:09:32.514Z,51.70
2022-11-22T15:12:34.614Z,50.53
2022-11-22T15:57:29.229Z,58.30
2022-11-22T16:03:07.157Z,54.80
2022-11-22T16:06:07.590Z,52.80
2022-11-22T16:15:36.591Z,56.80
2022-11-22T16:18:15.770Z,52.80
2022-11-22T16:21:01.718Z,59.33
2022-11-22T16:23:33.343Z,50.07
2022-11-22T16:26:20.569Z,55.97
2022-11-22T16:28:52.386Z,60.40
2022-11-22T16:31:27.628Z,56.63
2022-11-22T16:33:59.148Z,52.73
2022-11-22T16:36:32.483Z,60.57
2022-11-22T16:39:03.374Z,63.63
2022-11-22T16:41:33.937Z,62.23
2022-11-22T16:44:09.236Z,60.50
2022-11-22T16:46:42.616Z,63.67
2022-11-22T16:49:20.065Z,62.73
2022-11-22T16:51:51.383Z,61.97
2022-11-22T16:54:23.963Z,63.87
2022-11-22T16:56:54.122Z,61.30
2022-11-22T16:59:25.172Z,61.03
2022-11-22T17:01:57.921Z,67.63
2022-11-22T17:04:29.154Z,62.17
2022-11-22T17:06:59.717Z,61.20
2022-11-22T17:09:30.701Z,66.00
2022-11-22T17:12:01.340Z,65.70
2022-11-22T17:20:08.690Z,60.43
2022-11-22T17:22:39.380Z,67.13
2022-11-22T17:25:15.836Z,65.90
2022-11-22T17:27:49.073Z,76.00
2022-11-22T17:30:22.617Z,73.53
2022-11-22T17:32:55.368Z,64.33
2022-11-22T17:35:26.089Z,75.33
2022-11-22T17:37:56.922Z,69.80
2022-11-22T17:40:27.410Z,67.47
2022-11-22T17:42:58.202Z,70.13
2022-11-22T17:45:29.776Z,69.37
2022-11-22T17:48:02.622Z,79.60
2022-11-22T17:50:33.119Z,73.80
2022-11-22T17:53:03.211Z,69.67
2022-11-22T17:55:48.403Z,75.43
2022-11-22T17:58:25.338Z,71.77
2022-11-22T18:00:55.724Z,79.00
2022-11-22T18:03:28.416Z,70.77
2022-11-22T18:05:58.868Z,73.27
2022-11-22T18:08:29.124Z,69.23
2022-11-22T18:11:02.282Z,81.87
2022-11-22T18:13:34.141Z,74.07
2022-11-22T18:16:06.426Z,61.90
2022-11-22T18:18:57.457Z,73.63
2022-11-22T18:21:29.564Z,100.13
2022-11-22T18:24:00.656Z,122.87
2022-11-22T18:26:40.381Z,80.27
2022-11-22T18:32:03.931Z,74.03
2022-11-22T18:34:36.793Z,74.93
2022-11-22T18:37:07.597Z,70.13
2022-11-22T18:39:40.456Z,76.50
2022-11-22T18:42:14.887Z,66.33
2022-11-22T18:44:44.884Z,71.83
2022-11-22T18:47:15.392Z,71.23
2022-11-22T18:49:48.181Z,70.20
2022-11-22T18:52:18.807Z,75.57
2022-11-22T18:54:49.267Z,71.67
2022-11-22T18:57:19.790Z,71.20
2022-11-22T18:59:49.892Z,72.30
2022-11-22T19:02:25.790Z,72.87
2022-11-22T19:04:58.729Z,74.70
2022-11-22T19:07:29.154Z,74.57
2022-11-22T19:09:59.915Z,72.80
2022-11-22T19:12:30.623Z,73.10
2022-11-22T19:15:00.608Z,69.33
2022-11-22T19:17:31.076Z,70.47
2022-11-22T19:20:03.700Z,78.63
2022-11-22T19:22:34.145Z,74.40
2022-11-22T19:25:04.258Z,66.80
2022-11-22T19:27:34.608Z,72.27
2022-11-22T19:30:04.597Z,68.87
2022-11-22T19:32:35.087Z,79.30
2022-11-22T19:35:08.461Z,83.73
2022-11-22T19:37:39.086Z,70.27
2022-11-22T19:40:11.159Z,68.57
2022-11-22T19:42:41.458Z,68.90
2022-11-22T19:45:12.261Z,79.73
2022-11-22T19:47:42.664Z,73.23
2022-11-22T19:50:15.245Z,71.87
2022-11-22T19:52:45.547Z,78.63
2022-11-22T19:55:15.562Z,70.20
2022-11-22T19:57:45.861Z,80.20
2022-11-22T20:00:17.099Z,66.20
2022-11-22T20:02:47.727Z,76.87
2022-11-22T20:05:20.652Z,70.17
2022-11-22T20:07:51.036Z,71.87
2022-11-22T20:10:21.202Z,65.80
2022-11-22T20:12:51.823Z,73.73
2022-11-22T20:15:22.068Z,100.70
2022-11-22T20:17:52.608Z,65.77
2022-11-22T20:20:25.271Z,69.83
2022-11-22T20:22:56.870Z,68.70
2022-11-22T20:25:26.862Z,82.43
2022-11-22T20:27:57.284Z,76.93
2022-11-22T20:30:27.258Z,75.63
2022-11-22T20:32:57.674Z,75.90
2022-11-22T20:35:30.303Z,70.93
2022-11-22T20:38:00.704Z,74.23
2022-11-22T20:40:30.753Z,78.03
2022-11-22T20:43:01.468Z,70.47
2022-11-22T20:45:32.525Z,76.50
2022-11-22T20:48:03.201Z,78.03
2022-11-22T20:50:36.375Z,79.50
2022-11-22T20:53:06.988Z,68.37
2022-11-22T20:55:36.916Z,71.20
2022-11-22T20:58:07.272Z,74.60
2022-11-22T21:00:37.351Z,70.67
2022-11-22T21:03:08.188Z,74.17
2022-11-22T21:05:40.886Z,73.30
2022-11-22T21:08:11.319Z,76.03
2022-11-22T21:10:41.473Z,81.63
2022-11-22T21:13:11.915Z,76.27
2022-11-22T21:15:41.955Z,77.13
2022-11-22T21:18:28.371Z,76.97
2022-11-22T21:21:04.399Z,72.67
2022-11-22T21:23:35.479Z,74.97
2022-11-22T21:26:06.853Z,74.83
2022-11-22T21:28:38.899Z,76.43
2022-11-22T21:31:09.802Z,74.13
2022-11-22T21:33:40.464Z,71.03
2022-11-22T21:36:13.326Z,75.83
2022-11-22T21:38:43.694Z,69.40
2022-11-22T21:41:38.837Z,74.87
2022-11-22T21:44:07.119Z,76.17
2022-11-22T21:46:37.066Z,78.73
2022-11-22T21:49:07.609Z,77.67
2022-11-22T21:51:40.219Z,83.27
2022-11-22T21:54:10.789Z,75.37
2022-11-22T21:56:40.737Z,82.37
2022-11-22T21:59:12.539Z,81.77
2022-11-22T22:01:42.570Z,79.80
2022-11-22T22:04:13.007Z,79.27
2022-11-22T22:06:46.387Z,78.77
2022-11-22T22:09:16.720Z,76.47
2022-11-22T22:11:47.893Z,70.17
2022-11-22T22:14:18.430Z,79.33
2022-11-22T22:16:48.511Z,76.13
2022-11-22T22:19:18.822Z,72.23
2022-11-22T22:21:51.502Z,84.00
2022-11-22T22:24:22.115Z,78.10
2022-11-22T22:26:52.315Z,74.00
2022-11-22T22:29:22.748Z,84.50
2022-11-22T22:31:52.749Z,81.77
2022-11-22T22:34:23.069Z,69.77
2022-11-22T22:36:56.070Z,74.13
2022-11-22T22:39:26.513Z,71.43
2022-11-22T22:41:56.661Z,88.97
2022-11-22T22:44:27.033Z,70.70
2022-11-22T22:46:57.299Z,77.33
2022-11-22T22:49:27.709Z,77.80
2022-11-22T22:52:00.259Z,80.33
2022-11-22T22:54:30.892Z,72.83
2022-11-22T22:57:00.971Z,79.00
2022-11-22T22:59:31.576Z,73.30
2022-11-22T23:02:02.113Z,77.73
2022-11-22T23:04:32.802Z,74.83
2022-11-22T23:07:05.395Z,77.30
2022-11-22T23:09:35.993Z,83.57
2022-11-22T23:12:14.912Z,78.97
2022-11-22T23:14:45.202Z,82.23
2022-11-22T23:17:15.268Z,74.53
2022-11-22T23:19:45.598Z,80.53
2022-11-22T23:22:20.878Z,82.67
2022-11-22T23:24:55.009Z,77.77
2022-11-22T23:27:24.971Z,80.47
2022-11-22T23:29:55.265Z,85.57
2022-11-22T23:32:25.345Z,86.37
2022-11-22T23:34:55.756Z,80.37
2022-11-22T23:37:28.324Z,88.57
2022-11-22T23:39:58.739Z,81.03
2022-11-22T23:42:28.680Z,83.83
2022-11-22T23:44:59.025Z,76.10
2022-11-22T23:47:28.991Z,84.40
2022-11-22T23:49:59.350Z,84.23
2022-11-22T23:52:31.877Z,85.70
2022-11-22T23:55:02.231Z,70.73
2022-11-22T23:57:32.411Z,82.60
